Time;durP1;ratioP1;P1;durP2;ratioP2;P2;SDS_P1;SDS_P2;PMS_P1;PMS_P2;Temp;Humidity;BMP_temperature;BMP_pressure;BME280_temperature;BME280_humidity;BME280_pressure;Samples;Min_cycle;Max_cycle;Signal;HPM_P1;HPM_P2
2022/11/21 00:00:45;;;;;;;9.15;4.63;;;;;;;16.95;62.07;99588.00;5112411;28;20054;-72
2022/11/21 00:03:11;;;;;;;7.78;4.75;;;;;;;16.95;62.02;99574.81;5113214;28;20030;-72
2022/11/21 00:05:42;;;;;;;8.02;4.60;;;;;;;16.92;62.27;99574.00;5115925;28;20020;-71
2022/11/21 00:08:13;;;;;;;8.98;4.88;;;;;;;16.91;62.38;99572.31;5116027;28;20030;-72
2022/11/21 00:10:40;;;;;;;10.00;5.13;;;;;;;16.91;62.47;99559.13;5116020;28;20016;-72
2022/11/21 00:13:11;;;;;;;9.52;5.10;;;;;;;16.92;62.56;99558.19;5115293;28;20035;-71
2022/11/21 00:15:39;;;;;;;8.75;4.55;;;;;;;16.92;62.48;99550.28;5115805;28;20042;-71
2022/11/21 00:18:04;;;;;;;7.72;4.50;;;;;;;16.94;62.21;99544.13;5115811;28;20028;-71
2022/11/21 00:20:30;;;;;;;7.25;4.53;;;;;;;16.94;62.16;99537.06;5097360;28;20055;-71
2022/11/21 00:22:56;;;;;;;8.82;4.20;;;;;;;16.93;62.29;99535.34;5115723;28;20034;-71
2022/11/21 00:25:21;;;;;;;8.10;4.68;;;;;;;16.92;62.40;99526.56;5111497;28;20026;-72
2022/11/21 00:27:47;;;;;;;8.35;4.60;;;;;;;16.93;62.44;99519.53;5109943;28;20039;-71
2022/11/21 00:30:12;;;;;;;9.15;5.15;;;;;;;16.91;62.49;99501.13;5106499;28;20027;-71
2022/11/21 00:32:38;;;;;;;9.10;4.57;;;;;;;16.90;62.12;99488.88;5115301;28;20032;-71
2022/11/21 00:35:05;;;;;;;8.25;4.10;;;;;;;16.90;62.01;99486.25;5110844;28;20034;-71
2022/11/21 00:37:31;;;;;;;7.90;4.50;;;;;;;16.93;62.06;99490.53;5112640;28;20027;-71
2022/11/21 00:39:57;;;;;;;11.10;4.03;;;;;;;16.92;61.98;99481.75;5115545;28;20241;-72
2022/11/21 00:42:22;;;;;;;8.15;4.28;;;;;;;16.93;62.19;99474.72;5114959;28;20069;-72
2022/11/21 00:44:48;;;;;;;8.65;4.28;;;;;;;16.92;62.07;99468.59;5115296;28;20046;-72
2022/11/21 00:47:13;;;;;;;6.72;3.88;;;;;;;16.93;62.29;99458.91;5115469;28;20032;-71
2022/11/21 00:49:39;;;;;;;6.85;3.67;;;;;;;16.94;61.98;99455.34;5096995;28;20386;-72
2022/11/21 00:52:04;;;;;;;6.72;3.85;;;;;;;16.91;62.03;99456.34;5115210;28;20032;-72
2022/11/21 00:54:29;;;;;;;9.02;4.07;;;;;;;16.90;62.23;99454.63;5115254;28;20084;-72
2022/11/21 00:56:55;;;;;;;6.55;3.97;;;;;;;16.88;62.05;99448.56;5114528;28;20092;-72
2022/11/21 00:59:20;;;;;;;7.45;3.55;;;;;;;16.95;61.69;99451.78;5096858;28;20027;-71
2022/11/21 01:01:45;;;;;;;8.32;4.00;;;;;;;16.91;61.86;99437.88;5115001;28;20471;-71
2022/11/21 01:04:11;;;;;;;9.18;3.60;;;;;;;16.89;62.11;99439.75;5114971;28;20027;-72
2022/11/21 01:06:37;;;;;;;6.20;3.25;;;;;;;16.90;61.75;99430.91;5114975;28;20019;-72
2022/11/21 01:09:03;;;;;;;7.55;3.83;;;;;;;16.91;61.99;99432.59;5114833;28;20028;-71
2022/11/21 01:11:29;;;;;;;7.80;3.95;;;;;;;16.91;62.08;99419.44;5114542;28;20103;-71
2022/11/21 01:13:55;;;;;;;7.50;3.83;;;;;;;16.91;61.75;99411.53;5114605;28;20182;-71
2022/11/21 01:16:23;;;;;;;6.25;3.60;;;;;;;16.90;62.12;99406.31;5113756;28;20027;-71
2022/11/21 01:18:49;;;;;;;6.38;3.38;;;;;;;16.90;62.09;99398.41;5114424;28;20498;-70
2022/11/21 01:21:19;;;;;;;6.28;3.60;;;;;;;16.85;61.92;99388.09;5114637;28;20036;-71
2022/11/21 01:23:45;;;;;;;6.18;3.13;;;;;;;16.86;62.29;99387.16;5114671;28;20055;-71
2022/11/21 01:26:15;;;;;;;5.70;3.42;;;;;;;16.90;62.11;99370.28;5114462;28;20028;-71
2022/11/21 01:28:41;;;;;;;6.47;3.10;;;;;;;16.92;62.15;99367.59;5114619;28;20032;-71
2022/11/21 01:31:09;;;;;;;6.78;3.45;;;;;;;16.91;62.06;99356.19;5114240;28;20383;-72
2022/11/21 01:33:35;;;;;;;7.25;3.40;;;;;;;16.89;61.85;99347.50;5114153;28;20038;-72
2022/11/21 01:36:15;;;;;;;7.82;3.40;;;;;;;16.88;62.00;99335.25;5114271;28;20089;-71
2022/11/21 01:38:43;;;;;;;6.40;3.45;;;;;;;16.87;61.81;99333.53;5113965;28;20039;-71
2022/11/21 01:41:10;;;;;;;6.10;2.65;;;;;;;16.89;61.94;99326.41;5113679;28;20076;-72
2022/11/21 01:43:36;;;;;;;6.75;2.90;;;;;;;16.88;61.88;99324.69;5114045;28;20016;-70
2022/11/21 01:46:12;;;;;;;6.75;3.15;;;;;;;16.87;62.03;99317.72;5114102;28;20076;-71
2022/11/21 01:48:46;;;;;;;6.63;2.95;;;;;;;16.90;61.87;99307.03;5113853;28;20111;-71
2022/11/21 01:51:27;;;;;;;6.63;3.42;;;;;;;16.86;61.94;99289.63;5113899;28;20088;-72
2022/11/21 01:54:11;;;;;;;6.55;3.10;;;;;;;16.88;61.66;99281.66;5095857;28;20059;-71
2022/11/21 01:56:44;;;;;;;8.93;3.92;;;;;;;16.87;61.73;99267.66;5113889;28;20025;-71
2022/11/21 01:59:17;;;;;;;6.05;3.10;;;;;;;16.84;61.66;99270.41;5113777;28;20028;-71
2022/11/21 02:01:45;;;;;;;5.78;3.15;;;;;;;16.86;61.89;99258.00;5113916;28;20483;-71
2022/11/21 02:04:10;;;;;;;5.50;2.95;;;;;;;16.87;61.56;99253.59;5113889;28;20080;-72
2022/11/21 02:06:36;;;;;;;9.43;3.30;;;;;;;16.84;61.75;99244.06;5113769;28;20028;-71
2022/11/21 02:09:02;;;;;;;6.97;2.75;;;;;;;16.82;61.70;99240.66;5113271;28;20097;-71
2022/11/21 02:11:36;;;;;;;5.72;2.60;;;;;;;16.85;61.59;99234.38;5113506;28;20019;-71
2022/11/21 02:14:02;;;;;;;6.80;3.03;;;;;;;16.85;61.92;99224.69;5113584;28;20084;-71
2022/11/21 02:16:28;;;;;;;5.43;2.70;;;;;;;16.83;61.89;99221.28;5113520;28;20106;-71
2022/11/21 02:18:53;;;;;;;4.70;2.33;;;;;;;16.83;61.57;99231.81;5095399;28;20084;-71
2022/11/21 02:21:25;;;;;;;6.00;3.00;;;;;;;16.80;61.77;99216.13;5113479;28;20027;-71
2022/11/21 02:24:14;;;;;;;6.95;2.97;;;;;;;16.76;61.50;99204.06;5112945;28;20019;-71
2022/11/21 02:26:40;;;;;;;4.97;2.45;;;;;;;16.75;61.69;99203.19;5050568;28;20052;-71
2022/11/21 02:29:06;;;;;;;5.78;2.78;;;;;;;16.78;61.88;99197.78;5050396;28;20068;-71
2022/11/21 02:31:31;;;;;;;6.00;2.78;;;;;;;16.79;61.63;99188.09;5050595;28;20037;-72
2022/11/21 02:33:57;;;;;;;5.82;2.60;;;;;;;16.80;61.66;99195.06;5050463;28;20037;-71
2022/11/21 02:36:48;;;;;;;6.88;3.47;;;;;;;16.80;61.75;99189.78;5050367;28;20035;-71
2022/11/21 02:39:28;;;;;;;6.82;2.50;;;;;;;16.78;61.94;99176.72;5048040;28;20094;-71
2022/11/21 02:42:03;;;;;;;5.43;2.50;;;;;;;16.79;61.88;99172.28;5050304;28;20132;-71
2022/11/21 02:44:38;;;;;;;6.43;2.60;;;;;;;16.79;61.42;99177.53;5050500;28;20056;-71
2022/11/21 02:47:04;;;;;;;3.85;2.15;;;;;;;16.76;61.47;99172.44;5050315;28;20029;-71
2022/11/21 02:49:47;;;;;;;6.35;2.28;;;;;;;16.81;61.35;99167.81;5050231;28;20534;-71
2022/11/21 02:52:13;;;;;;;5.80;2.65;;;;;;;16.80;61.44;99163.44;5050038;28;20033;-72
2022/11/21 02:54:38;;;;;;;4.55;2.15;;;;;;;16.79;61.66;99156.47;5050374;28;20396;-71
2022/11/21 02:57:03;;;;;;;5.57;2.38;;;;;;;16.79;61.89;99156.47;5050060;28;20090;-71
2022/11/21 02:59:29;;;;;;;5.20;2.28;;;;;;;16.80;61.73;99147.63;5050160;28;20025;-72
2022/11/21 03:01:58;;;;;;;4.93;2.60;;;;;;;16.79;61.44;99135.38;5050282;28;20116;-71
2022/11/21 03:04:24;;;;;;;6.53;2.67;;;;;;;16.77;61.45;99130.19;5083747;28;20133;-71
2022/11/21 03:06:50;;;;;;;4.65;2.25;;;;;;;16.79;61.92;99124.84;5092231;28;20031;-71
2022/11/21 03:09:15;;;;;;;4.53;2.03;;;;;;;16.77;61.60;99101.19;5092500;28;20020;-71
2022/11/21 03:11:40;;;;;;;5.28;2.40;;;;;;;16.80;61.61;99094.94;5092569;28;20027;-71
2022/11/21 03:14:06;;;;;;;5.28;2.70;;;;;;;16.81;61.52;99086.13;5092472;28;20123;-70
2022/11/21 03:16:31;;;;;;;6.70;2.30;;;;;;;16.81;61.64;99075.56;5092512;28;20047;-71
2022/11/21 03:18:56;;;;;;;5.28;2.38;;;;;;;16.77;61.37;99074.84;5074194;28;20118;-70
2022/11/21 03:21:22;;;;;;;6.90;2.35;;;;;;;16.83;61.28;99072.84;5092093;28;20026;-71
2022/11/21 03:23:47;;;;;;;5.30;1.92;;;;;;;16.81;61.45;99070.31;5092307;28;20035;-71
2022/11/21 03:26:13;;;;;;;6.13;2.30;;;;;;;16.84;61.42;99062.22;5092466;28;20111;-71
2022/11/21 03:28:41;;;;;;;6.43;2.40;;;;;;;16.82;61.42;99055.34;5092392;28;20039;-72
2022/11/21 03:31:06;;;;;;;5.03;2.55;;;;;;;16.83;61.41;99046.50;5103726;28;20108;-71
2022/11/21 03:33:31;;;;;;;5.65;2.40;;;;;;;16.82;61.27;99040.38;5112729;28;20106;-71
2022/11/21 03:35:57;;;;;;;5.25;2.40;;;;;;;16.83;61.38;99026.28;5112328;28;20058;-71
2022/11/21 03:38:22;;;;;;;4.75;2.00;;;;;;;16.80;61.28;99026.41;5113810;28;20036;-71
2022/11/21 03:40:48;;;;;;;5.50;2.42;;;;;;;16.81;61.55;99019.38;5098261;28;20065;-71
2022/11/21 03:43:13;;;;;;;5.90;2.05;;;;;;;16.79;61.51;99008.91;5116620;28;20119;-71
2022/11/21 03:45:38;;;;;;;5.55;2.20;;;;;;;16.79;61.08;99001.00;5116568;28;20020;-71
2022/11/21 03:48:04;;;;;;;4.93;2.05;;;;;;;16.75;61.41;98981.00;5116545;28;20038;-71
2022/11/21 03:50:29;;;;;;;4.43;2.10;;;;;;;16.77;61.50;98965.97;5116032;28;20028;-71
2022/11/21 03:52:55;;;;;;;4.22;1.75;;;;;;;16.76;61.55;98953.75;5116456;28;20055;-71
2022/11/21 03:55:20;;;;;;;4.57;1.95;;;;;;;16.76;61.27;98953.75;5116230;28;20031;-69
2022/11/21 03:57:46;;;;;;;4.35;1.90;;;;;;;16.74;61.39;98952.94;5115988;28;20106;-71
2022/11/21 04:00:12;;;;;;;3.47;1.83;;;;;;;16.76;61.28;98945.84;5116353;28;20098;-71
2022/11/21 04:02:38;;;;;;;5.13;2.08;;;;;;;16.72;61.36;98939.88;5116022;28;20535;-71
2022/11/21 04:05:03;;;;;;;4.95;1.85;;;;;;;16.69;61.17;98939.16;5115334;28;20103;-71
2022/11/21 04:07:29;;;;;;;3.78;1.80;;;;;;;16.72;61.21;98949.56;5114698;28;20027;-71
2022/11/21 04:09:54;;;;;;;4.20;1.70;;;;;;;16.74;61.24;98942.41;5115796;28;20035;-72
2022/11/21 04:12:20;;;;;;;5.40;1.85;;;;;;;16.74;61.24;98948.53;5115965;28;20081;-71
2022/11/21 04:14:45;;;;;;;4.93;1.90;;;;;;;16.71;61.32;98942.59;5115871;28;20048;-70
2022/11/21 04:17:10;;;;;;;4.20;2.08;;;;;;;16.69;61.13;98933.88;5115620;28;20454;-70
2022/11/21 04:19:36;;;;;;;6.63;2.38;;;;;;;16.69;61.48;98928.63;5115020;28;20076;-70
2022/11/21 04:22:01;;;;;;;6.40;2.05;;;;;;;16.69;61.32;98923.34;5115719;28;20420;-71
2022/11/21 04:24:27;;;;;;;6.43;1.90;;;;;;;16.67;61.37;98915.56;5115705;28;20024;-71
2022/11/21 04:26:55;;;;;;;4.55;1.63;;;;;;;16.68;61.29;98917.25;5115578;28;20016;-71
2022/11/21 04:29:20;;;;;;;6.38;2.00;;;;;;;16.68;61.26;98917.25;5115770;28;20043;-70
2022/11/21 04:31:46;;;;;;;4.45;2.03;;;;;;;16.67;61.29;98905.00;5115581;28;20024;-71
2022/11/21 04:34:11;;;;;;;6.80;1.95;;;;;;;16.70;61.15;98909.28;5115136;28;20456;-71
2022/11/21 04:36:36;;;;;;;3.22;1.40;;;;;;;16.71;61.21;98905.69;5115216;28;20062;-71
2022/11/21 04:39:02;;;;;;;3.70;1.67;;;;;;;16.71;61.12;98901.25;5115273;28;20023;-71
2022/11/21 04:41:27;;;;;;;4.32;1.75;;;;;;;16.69;60.93;98897.88;5115561;28;20023;-71
2022/11/21 04:43:53;;;;;;;5.45;1.83;;;;;;;16.68;61.24;98901.44;5115339;28;20058;-71
2022/11/21 04:46:18;;;;;;;4.65;1.83;;;;;;;16.71;61.17;98908.34;5115313;28;20024;-71
2022/11/21 04:48:44;;;;;;;4.50;2.33;;;;;;;16.71;60.88;98898.63;5115029;28;20474;-71
2022/11/21 04:51:09;;;;;;;4.80;1.90;;;;;;;16.70;61.15;98899.56;5114060;28;20024;-71
2022/11/21 04:53:34;;;;;;;4.32;1.88;;;;;;;16.71;60.94;98900.44;5115291;28;20068;-71
2022/11/21 04:56:04;;;;;;;3.78;1.50;;;;;;;16.69;61.21;98899.66;5115080;28;20024;-71
2022/11/21 04:58:29;;;;;;;4.13;1.60;;;;;;;16.68;61.09;98900.56;5114896;28;20030;-71
2022/11/21 05:00:55;;;;;;;5.75;1.85;;;;;;;16.73;61.04;98903.81;5115083;28;20399;-71
2022/11/21 05:03:20;;;;;;;6.88;1.88;;;;;;;16.74;61.13;98900.25;5096314;28;20038;-70
2022/11/21 05:05:46;;;;;;;4.53;1.73;;;;;;;16.73;61.28;98893.28;5114968;28;20028;-71
2022/11/21 05:08:11;;;;;;;5.80;1.50;;;;;;;16.69;60.93;98895.22;5114743;28;20020;-71
2022/11/21 05:13:19;;;;;;;6.13;1.80;;;;;;;16.71;61.29;98903.06;5114877;28;20059;-71
2022/11/21 05:13:22;;;;;;;5.00;1.67;;;;;;;16.69;61.18;98891.75;5114444;28;20047;-71
2022/11/21 05:15:50;;;;;;;4.70;1.88;;;;;;;16.68;61.24;98890.03;5114631;28;20024;-71
2022/11/21 05:18:19;;;;;;;3.97;1.50;;;;;;;16.68;60.92;98890.03;5114268;28;20051;-71
2022/11/21 05:20:44;;;;;;;5.00;1.70;;;;;;;16.68;61.16;98890.03;5114609;28;20505;-72
2022/11/21 05:23:10;;;;;;;4.50;1.48;;;;;;;16.73;60.99;98888.03;5114561;28;20096;-71
2022/11/21 05:25:35;;;;;;;4.72;1.67;;;;;;;16.69;61.31;98891.75;5114578;28;20098;-71
2022/11/21 05:28:01;;;;;;;5.13;1.73;;;;;;;16.73;60.90;98878.34;5096265;28;20114;-71
2022/11/21 05:30:26;;;;;;;3.88;1.52;;;;;;;16.68;61.12;98879.50;5114514;28;20026;-71
2022/11/21 05:32:51;;;;;;;4.65;1.52;;;;;;;16.71;61.13;98868.81;5114238;28;20027;-71
2022/11/21 05:35:17;;;;;;;4.50;1.60;;;;;;;16.70;61.30;98861.84;5114388;28;20016;-71
2022/11/21 05:37:42;;;;;;;5.07;1.65;;;;;;;16.72;61.19;98854.72;5114191;28;20500;-71
2022/11/21 05:40:08;;;;;;;4.13;1.48;;;;;;;16.67;60.83;98851.47;5114613;28;20016;-71
2022/11/21 05:45:22;;;;;;;4.78;1.67;;;;;;;16.62;60.98;98818.31;5114476;28;20105;-71
2022/11/21 05:47:47;;;;;;;4.10;1.50;;;;;;;16.64;60.91;98821.72;5113668;28;20027;-71
2022/11/21 05:50:15;;;;;;;5.30;1.80;;;;;;;16.62;60.98;98807.75;5113890;28;20055;-71
2022/11/21 05:52:41;;;;;;;4.63;1.77;;;;;;;16.61;61.07;98795.53;5114058;28;20016;-70
2022/11/21 05:55:07;;;;;;;3.88;1.50;;;;;;;16.63;60.96;98787.56;5113997;28;20050;-71
2022/11/21 05:57:32;;;;;;;3.95;1.63;;;;;;;16.63;60.86;98771.75;5113935;28;20122;-71
2022/11/21 05:59:57;;;;;;;4.25;1.63;;;;;;;16.60;60.90;98751.69;5113794;28;20028;-71
2022/11/21 06:05:07;;;;;;;4.53;1.55;;;;;;;16.55;61.05;98737.91;5113176;28;20051;-72
2022/11/21 06:07:32;;;;;;;3.42;1.48;;;;;;;16.56;61.14;98734.34;5113845;28;20028;-71
2022/11/21 06:09:58;;;;;;;5.93;1.95;;;;;;;16.54;61.07;98735.34;5113457;28;20032;-71
2022/11/21 06:12:23;;;;;;;3.53;1.38;;;;;;;16.53;60.88;98716.09;5113650;28;20054;-71
2022/11/21 06:14:49;;;;;;;3.97;1.50;;;;;;;16.55;61.01;98722.13;5113624;28;20128;-71
2022/11/21 06:17:14;;;;;;;3.53;1.35;;;;;;;16.51;60.97;98715.31;5113160;28;20764;-70
2022/11/21 06:19:39;;;;;;;3.78;1.48;;;;;;;16.50;60.90;98726.78;5112985;28;20027;-71
2022/11/21 06:22:05;;;;;;;6.47;1.67;;;;;;;16.52;60.81;98722.28;5095216;28;20024;-71
2022/11/21 06:24:30;;;;;;;5.03;1.60;;;;;;;16.55;60.88;98730.00;5113561;28;20032;-72
2022/11/21 06:26:56;;;;;;;7.35;1.58;;;;;;;16.52;61.09;98722.28;5113436;28;20027;-71
2022/11/21 06:29:21;;;;;;;6.20;1.67;;;;;;;16.53;61.13;98721.34;5111331;28;20028;-70
2022/11/21 06:31:47;;;;;;;3.45;1.40;;;;;;;16.57;61.03;98720.22;5092830;28;20028;-71
2022/11/21 06:34:12;;;;;;;5.18;1.30;;;;;;;16.58;61.02;98721.97;5106776;28;20042;-70
2022/11/21 06:36:38;;;;;;;4.50;1.27;;;;;;;16.60;60.96;98722.72;5113227;28;20031;-71
2022/11/21 06:39:03;;;;;;;3.00;1.48;;;;;;;16.60;61.01;98708.69;5100553;28;20032;-71
2022/11/21 06:41:31;;;;;;;4.90;1.30;;;;;;;16.61;60.68;98684.91;5099363;28;20027;-71
2022/11/21 06:44:02;;;;;;;5.38;1.35;;;;;;;16.58;60.59;98679.81;5113080;28;20487;-71
2022/11/21 06:46:28;;;;;;;3.30;1.60;;;;;;;16.57;60.70;98662.28;5112608;28;20466;-71
2022/11/21 06:48:53;;;;;;;4.13;1.65;;;;;;;16.52;60.57;98643.28;5113069;28;20110;-69
2022/11/21 06:51:23;;;;;;;5.03;1.40;;;;;;;16.53;60.52;98639.72;5112351;28;20556;-70
2022/11/21 06:53:57;;;;;;;3.25;1.30;;;;;;;16.55;60.91;98643.09;5113128;28;20023;-70
2022/11/21 06:56:27;;;;;;;4.05;1.40;;;;;;;16.54;60.48;98641.41;5112694;28;20060;-70
2022/11/21 06:58:52;;;;;;;3.28;1.30;;;;;;;16.58;60.75;98636.81;5112104;28;20028;-70
2022/11/21 07:01:18;;;;;;;4.90;1.83;;;;;;;16.59;60.56;98636.75;5111624;28;20020;-70
2022/11/21 07:03:44;;;;;;;4.00;1.35;;;;;;;16.60;60.63;98635.78;5111961;28;20020;-69
2022/11/21 07:06:09;;;;;;;4.55;1.48;;;;;;;16.57;60.78;98629.84;5112400;28;20023;-69
2022/11/21 07:08:35;;;;;;;4.32;1.55;;;;;;;16.56;60.79;98634.25;5111873;28;20032;-69
2022/11/21 07:11:09;;;;;;;3.92;1.42;;;;;;;16.58;60.94;98632.41;5112301;28;20559;-70
2022/11/21 07:13:34;;;;;;;5.60;1.60;;;;;;;16.57;60.56;98628.06;5114015;28;20492;-69
2022/11/21 07:16:05;;;;;;;4.85;1.58;;;;;;;16.57;60.63;98630.69;5117164;28;20023;-69
2022/11/21 07:18:31;;;;;;;4.35;1.30;;;;;;;16.58;60.62;98632.41;5116908;28;20062;-70
2022/11/21 07:20:58;;;;;;;5.40;1.77;;;;;;;16.56;60.83;98615.00;5116625;28;20570;-70
2022/11/21 07:23:24;;;;;;;5.13;1.92;;;;;;;16.53;60.68;98592.31;5116900;28;20023;-69
2022/11/21 07:25:49;;;;;;;5.00;1.65;;;;;;;16.52;60.57;98590.63;5116893;28;20092;-70
2022/11/21 07:28:14;;;;;;;5.97;1.67;;;;;;;16.50;60.67;98600.38;5116357;28;20110;-70
2022/11/21 07:30:40;;;;;;;5.55;1.88;;;;;;;16.51;60.84;98602.06;5116443;28;20108;-70
2022/11/21 07:33:06;;;;;;;5.57;1.90;;;;;;;16.49;60.69;98611.84;5116133;28;20165;-70
2022/11/21 07:35:33;;;;;;;6.18;2.10;;;;;;;16.55;60.72;98600.97;5116440;28;20028;-66
2022/11/21 07:37:58;;;;;;;5.88;1.42;;;;;;;16.52;60.59;98601.16;5116528;28;20039;-66
2022/11/21 07:40:24;;;;;;;4.85;1.52;;;;;;;16.53;60.96;98592.31;5116517;28;20023;-66
2022/11/21 07:42:50;;;;;;;6.38;2.13;;;;;;;16.53;60.86;98575.66;5115130;28;20015;-67
2022/11/21 07:45:15;;;;;;;5.28;1.60;;;;;;;16.54;60.79;98564.16;5097690;28;20114;-66
2022/11/21 07:47:41;;;;;;;4.00;1.60;;;;;;;16.51;61.02;98565.19;5116021;28;20024;-66
2022/11/21 07:50:07;;;;;;;4.07;1.58;;;;;;;16.56;60.84;98581.59;5116233;28;20028;-66
2022/11/21 07:52:33;;;;;;;6.72;2.03;;;;;;;16.52;60.85;98574.81;5098056;28;20028;-66
2022/11/21 07:55:01;;;;;;;5.00;1.50;;;;;;;16.51;60.76;98563.41;5116426;28;20054;-66
2022/11/21 07:57:27;;;;;;;6.65;1.70;;;;;;;16.54;60.77;98562.41;5115954;28;20034;-66
2022/11/21 07:59:53;;;;;;;5.55;1.35;;;;;;;16.53;60.70;98552.81;5116148;28;20102;-66
2022/11/21 08:02:24;;;;;;;5.53;2.03;;;;;;;16.52;60.71;98540.56;5097397;28;20024;-66
2022/11/21 08:04:50;;;;;;;8.68;1.92;;;;;;;16.52;60.72;98543.22;5116235;28;20067;-66
2022/11/21 08:07:17;;;;;;;6.20;1.58;;;;;;;16.50;60.58;98534.53;5116047;28;20070;-67
2022/11/21 08:09:43;;;;;;;7.05;1.67;;;;;;;16.54;60.56;98522.91;5115679;28;20024;-66
2022/11/21 08:12:10;;;;;;;5.43;1.50;;;;;;;16.50;60.70;98509.06;5114395;28;20444;-66
2022/11/21 08:14:36;;;;;;;4.03;1.30;;;;;;;16.52;60.63;98498.44;5097572;28;20052;-66
2022/11/21 08:17:02;;;;;;;7.97;1.77;;;;;;;16.55;60.63;98511.41;5115384;28;20486;-67
2022/11/21 08:19:27;;;;;;;3.72;1.63;;;;;;;16.56;60.53;98515.75;5115762;28;20024;-65
2022/11/21 08:21:52;;;;;;;5.78;1.48;;;;;;;16.55;60.63;98506.16;5115864;28;20027;-66
2022/11/21 08:24:18;;;;;;;4.20;1.85;;;;;;;16.53;60.80;98508.03;5115517;28;20110;-66
2022/11/21 08:26:44;;;;;;;6.05;1.80;;;;;;;16.48;60.47;98496.91;5115369;28;20031;-65
2022/11/21 08:29:10;;;;;;;6.00;1.85;;;;;;;16.51;60.75;98494.09;5115666;28;20084;-65
2022/11/21 08:31:37;;;;;;;4.78;1.63;;;;;;;16.52;60.51;98480.00;5114892;28;20518;-66
2022/11/21 08:34:02;;;;;;;6.18;1.38;;;;;;;16.54;60.37;98478.13;5114468;28;20027;-66
2022/11/21 08:36:28;;;;;;;5.50;1.48;;;;;;;16.54;60.54;98482.53;5114002;28;20038;-67
2022/11/21 08:38:53;;;;;;;5.65;1.73;;;;;;;16.49;60.64;98490.69;5114263;28;20031;-66
2022/11/21 08:44:04;;;;;;;4.78;1.50;;;;;;;16.47;60.32;98468.88;5114876;28;20099;-66
2022/11/21 08:46:32;;;;;;;3.63;1.35;;;;;;;16.49;60.45;98480.16;5114448;28;20027;-66
2022/11/21 08:48:58;;;;;;;6.15;1.70;;;;;;;16.46;60.45;98464.56;5115206;28;20112;-66
2022/11/21 08:51:23;;;;;;;7.10;1.80;;;;;;;16.46;60.63;98465.38;5115280;28;20459;-66
2022/11/21 08:53:49;;;;;;;5.72;1.42;;;;;;;16.45;60.55;98455.81;5115177;28;20023;-67
2022/11/21 08:56:14;;;;;;;5.35;1.60;;;;;;;16.49;60.31;98451.19;5114858;28;20108;-66
2022/11/21 08:58:40;;;;;;;6.00;2.13;;;;;;;16.48;60.55;98436.34;5115026;28;20034;-66
2022/11/21 09:01:05;;;;;;;7.72;2.05;;;;;;;16.47;60.22;98424.13;5114987;28;20030;-67
2022/11/21 09:03:31;;;;;;;5.97;1.48;;;;;;;16.49;60.40;98435.41;5115231;28;20050;-66
2022/11/21 09:05:58;;;;;;;7.90;1.70;;;;;;;16.48;60.54;98428.44;5114681;28;20028;-66
2022/11/21 09:08:24;;;;;;;5.07;1.60;;;;;;;16.49;60.20;98406.44;5114806;28;20024;-66
2022/11/21 09:10:50;;;;;;;6.53;1.60;;;;;;;16.45;60.45;98399.66;5114557;28;20376;-66
2022/11/21 09:13:15;;;;;;;7.03;2.08;;;;;;;16.46;60.62;98380.31;5114461;28;20056;-66
2022/11/21 09:18:24;;;;;;;5.88;1.60;;;;;;;16.42;60.23;98369.06;5113728;28;20039;-66
2022/11/21 09:20:50;;;;;;;3.67;1.40;;;;;;;16.41;60.24;98346.31;5114343;28;20028;-66
2022/11/21 09:23:15;;;;;;;6.03;1.50;;;;;;;16.45;60.55;98341.72;5114106;28;20368;-66
2022/11/21 09:25:41;;;;;;;4.35;1.60;;;;;;;16.42;60.37;98348.00;5113649;28;20060;-65
2022/11/21 09:28:08;;;;;;;8.38;2.90;;;;;;;16.44;60.38;98334.75;5114409;28;20084;-65
2022/11/21 09:30:34;;;;;;;6.22;1.88;;;;;;;16.39;60.33;98311.34;5112719;28;20038;-66
2022/11/21 09:33:19;;;;;;;5.82;1.88;;;;;;;16.41;60.52;98314.72;5114399;28;20043;-65
2022/11/21 09:35:45;;;;;;;7.10;2.28;;;;;;;16.40;60.55;98301.66;5113356;28;20139;-65
2022/11/21 09:38:10;;;;;;;5.28;1.60;;;;;;;16.40;60.25;98296.38;5114399;28;20114;-65
2022/11/21 09:40:40;;;;;;;5.10;1.67;;;;;;;16.43;60.54;98297.06;5114222;28;20035;-65
2022/11/21 09:43:24;;;;;;;5.75;2.10;;;;;;;16.42;60.27;98294.53;5114366;28;20485;-65
2022/11/21 09:45:51;;;;;;;4.60;1.67;;;;;;;16.44;60.21;98287.38;5114164;28;20023;-67
2022/11/21 09:48:23;;;;;;;5.85;2.03;;;;;;;16.41;60.14;98277.03;5114245;28;20441;-66
2022/11/21 09:50:54;;;;;;;6.07;1.65;;;;;;;16.42;60.38;98300.63;5114199;28;20032;-65
2022/11/21 09:53:27;;;;;;;4.40;1.60;;;;;;;16.47;60.39;98316.16;5113813;28;20437;-66
2022/11/21 09:55:55;;;;;;;5.38;1.90;;;;;;;16.47;60.36;98281.94;5113312;28;20460;-66
2022/11/21 09:58:34;;;;;;;5.50;1.63;;;;;;;16.44;60.39;98276.84;5113790;28;20032;-66
2022/11/21 10:01:00;;;;;;;4.68;1.95;;;;;;;16.42;60.24;98328.75;5113919;28;20457;-65
2022/11/21 10:03:34;;;;;;;7.40;1.85;;;;;;;16.46;60.09;98338.16;5113818;28;20053;-66
2022/11/21 10:06:04;;;;;;;5.25;1.80;;;;;;;16.48;60.41;98341.53;5113892;28;20088;-66
2022/11/21 10:08:39;;;;;;;4.47;1.83;;;;;;;16.48;60.08;98317.84;5113434;28;20439;-66
2022/11/21 10:11:28;;;;;;;4.38;1.40;;;;;;;16.51;60.22;98312.38;5113135;28;20030;-66
2022/11/21 10:14:19;;;;;;;3.67;1.45;;;;;;;16.51;60.04;98325.53;5104948;28;20489;-66
2022/11/21 10:16:55;;;;;;;5.78;2.00;;;;;;;16.55;60.06;98327.06;5095482;28;20480;-66
2022/11/21 10:19:41;;;;;;;8.93;2.17;;;;;;;16.56;60.35;98343.72;5104035;28;20035;-65
2022/11/21 10:22:42;;;;;;;4.50;1.73;;;;;;;16.56;60.36;98357.72;5092974;28;20503;-66
2022/11/21 10:25:24;;;;;;;5.90;1.80;;;;;;;16.59;60.03;98364.59;5093120;28;20023;-65
2022/11/21 10:27:54;;;;;;;5.13;1.80;;;;;;;16.61;60.27;98368.84;5093146;28;20492;-65
2022/11/21 10:30:20;;;;;;;7.03;1.77;;;;;;;16.56;60.28;98370.88;5093042;28;20400;-65
2022/11/21 10:33:07;;;;;;;5.82;1.60;;;;;;;16.60;60.02;98380.31;5093038;28;20032;-66
2022/11/21 10:35:38;;;;;;;6.65;1.52;;;;;;;16.62;60.16;98365.25;5094220;28;20028;-65
2022/11/21 10:38:16;;;;;;;5.20;1.90;;;;;;;16.63;60.09;98355.56;5112925;28;20069;-65
2022/11/21 10:41:07;;;;;;;5.20;1.88;;;;;;;16.66;59.93;98351.91;5113387;28;20499;-65
2022/11/21 10:46:30;;;;;;;4.78;1.60;;;;;;;16.66;60.03;98333.47;5092741;28;20515;-66
2022/11/21 10:49:00;;;;;;;4.03;1.60;;;;;;;16.66;60.20;98321.13;5091857;28;20052;-66
2022/11/21 10:51:44;;;;;;;4.68;1.45;;;;;;;16.67;59.70;98309.69;5092120;28;20101;-66
2022/11/21 10:57:17;;;;;;;5.63;1.77;;;;;;;16.67;60.12;98304.41;5093113;28;20230;-66
2022/11/21 10:59:59;;;;;;;5.13;1.60;;;;;;;16.64;59.78;98300.19;5092585;28;20028;-66
2022/11/21 11:02:25;;;;;;;5.68;1.60;;;;;;;16.65;60.06;98311.53;5092262;28;20076;-66
2022/11/21 11:05:26;;;;;;;6.53;1.88;;;;;;;16.65;59.89;98295.75;5092084;28;20063;-67
2022/11/21 11:08:18;;;;;;;5.93;1.30;;;;;;;16.71;59.80;98299.81;5092633;28;20111;-66
2022/11/21 11:10:59;;;;;;;4.55;1.73;;;;;;;16.70;60.23;98296.31;5088502;28;20040;-66
2022/11/21 11:13:33;;;;;;;5.28;1.48;;;;;;;16.71;59.88;98281.38;5091392;28;20044;-66
2022/11/21 11:16:20;;;;;;;4.28;1.70;;;;;;;16.69;60.02;98256.88;5091560;28;20119;-66
2022/11/21 11:18:54;;;;;;;3.53;1.30;;;;;;;16.73;60.13;98239.97;5091033;28;20423;-66
2022/11/21 11:21:20;;;;;;;6.05;2.05;;;;;;;16.75;59.81;98222.25;5090805;28;20048;-67
2022/11/21 11:23:48;;;;;;;5.40;1.77;;;;;;;16.76;59.71;98209.00;5090793;28;20557;-66
2022/11/21 11:26:26;;;;;;;3.42;1.52;;;;;;;16.75;59.75;98214.34;5090854;28;20024;-67
2022/11/21 11:29:03;;;;;;;5.72;1.48;;;;;;;16.73;59.75;98222.38;5090737;28;20020;-66
2022/11/21 11:31:39;;;;;;;4.28;1.55;;;;;;;16.76;59.94;98223.97;5091740;28;20024;-66
2022/11/21 11:34:09;;;;;;;5.82;1.50;;;;;;;16.79;59.85;98223.75;5091375;28;20361;-66
2022/11/21 11:36:43;;;;;;;5.30;1.58;;;;;;;16.80;59.62;98217.53;5101076;28;20032;-66
2022/11/21 11:39:17;;;;;;;5.15;1.42;;;;;;;16.78;60.10;98216.81;5093987;28;20020;-66
2022/11/21 11:48:09;;;;;;;4.30;1.55;;;;;;;16.82;59.78;98180.56;5112169;28;20066;-67
2022/11/21 11:50:40;;;;;;;5.95;1.83;;;;;;;16.82;60.10;98173.53;5111147;28;20027;-66
2022/11/21 11:53:29;;;;;;;4.47;1.70;;;;;;;16.84;59.98;98161.09;5111473;28;20074;-66
2022/11/21 11:56:23;;;;;;;5.65;1.77;;;;;;;16.81;59.70;98148.13;5111975;28;20077;-66
2022/11/21 11:58:59;;;;;;;4.70;1.83;;;;;;;16.81;60.20;98153.41;5112463;28;20502;-66
2022/11/21 12:01:54;;;;;;;7.00;2.17;;;;;;;16.84;59.79;98153.19;5115408;28;20119;-66
2022/11/21 12:04:23;;;;;;;7.03;1.80;;;;;;;16.83;60.06;98156.78;5114859;28;20032;-66